Flugplatz Ansbach Army Heliport

Bericht für ETEB

vom 07.08. um 17:56 UTC

Wind 4 kt aus 150°

Sichtweite 10 km oder mehr

keine Wolken

Temperatur 27.6°C

Taupunkt 13.9°C

Luftfeuchtigkeit 43%

Luftdruck 1021 hPa

ETEB 071756Z AUTO 15004KT 9999 CLR 28/14 A3015 RMK AO2 SLPNO T02760139 10300 20276 55001 $

Prognose für ETEB

vom 07.08. um 09:00 UTC

Zwischen 09:00 UTC und 15:00 UTC

Wind 5 kt aus 90°

Sichtweite 10 km oder mehr

keine Wolken

TAF ETEB 070900Z 0709/0815 09005KT 9999 SKC QNH3015INS TX29/0715Z TN18/0803Z
Impressum